createdAt,value
2018-07-09T00:03:17.326Z,2.67
2018-07-09T00:08:20.109Z,2.30
2018-07-09T00:13:23.638Z,2.15
2018-07-09T00:18:26.112Z,1.90
2018-07-09T00:23:28.519Z,2.42
2018-07-09T00:28:31.026Z,2.50
2018-07-09T00:33:33.520Z,2.17
2018-07-09T00:38:35.956Z,2.22
2018-07-09T00:43:38.372Z,2.40
2018-07-09T00:48:40.797Z,2.27
2018-07-09T00:53:43.343Z,2.58
2018-07-09T00:58:45.728Z,2.25
2018-07-09T01:03:48.212Z,2.50
2018-07-09T01:08:50.676Z,2.27
2018-07-09T01:13:53.079Z,2.47
2018-07-09T01:18:55.460Z,2.65
2018-07-09T01:23:57.869Z,2.70
2018-07-09T01:29:00.241Z,2.60
2018-07-09T01:34:02.647Z,2.62
2018-07-09T01:39:05.063Z,2.70
2018-07-09T01:44:07.644Z,2.35
2018-07-09T01:49:10.101Z,2.52
2018-07-09T01:54:12.468Z,2.83
2018-07-09T01:59:15.337Z,3.42
2018-07-09T02:04:18.267Z,2.50
2018-07-09T02:09:20.756Z,2.70
2018-07-09T02:14:23.204Z,2.40
2018-07-09T02:19:26.648Z,2.60
2018-07-09T02:24:29.275Z,2.67
2018-07-09T02:29:31.648Z,2.37
2018-07-09T02:34:34.057Z,2.27
2018-07-09T02:39:36.576Z,2.20
2018-07-09T02:44:39.005Z,2.33
2018-07-09T02:49:41.371Z,2.20
2018-07-09T02:54:43.892Z,2.30
2018-07-09T02:59:46.404Z,2.37
2018-07-09T03:04:49.217Z,2.40
2018-07-09T03:09:51.612Z,2.00
2018-07-09T03:14:54.056Z,1.90
2018-07-09T03:19:56.440Z,1.60
2018-07-09T03:24:59.342Z,2.02
2018-07-09T03:30:04.033Z,1.90
2018-07-09T03:35:06.610Z,2.10
2018-07-09T03:40:09.568Z,1.90
2018-07-09T03:45:12.006Z,2.03
2018-07-09T03:50:14.607Z,1.80
2018-07-09T03:55:17.194Z,1.93
2018-07-09T04:00:19.663Z,1.87
2018-07-09T04:05:22.129Z,1.90
2018-07-09T04:10:24.950Z,1.83
2018-07-09T04:15:27.428Z,1.55
2018-07-09T04:20:29.839Z,1.60
2018-07-09T04:25:32.839Z,1.55
2018-07-09T04:30:35.256Z,1.50
2018-07-09T04:35:37.596Z,1.90
2018-07-09T04:40:40.166Z,1.35
2018-07-09T04:45:43.112Z,1.50
2018-07-09T04:50:45.761Z,1.60
2018-07-09T04:55:48.217Z,1.60
2018-07-09T05:00:50.968Z,1.60
2018-07-09T05:05:53.425Z,1.50
2018-07-09T05:10:56.049Z,1.62
2018-07-09T05:15:58.481Z,1.57
2018-07-09T05:21:01.212Z,1.40
2018-07-09T05:26:03.713Z,1.80
2018-07-09T05:31:06.210Z,2.05
2018-07-09T05:36:08.712Z,1.37
2018-07-09T05:41:11.335Z,1.65
2018-07-09T05:46:13.885Z,1.87
2018-07-09T05:51:16.539Z,1.57
2018-07-09T05:56:19.092Z,2.10
2018-07-09T06:01:22.401Z,1.80
2018-07-09T06:06:24.956Z,1.95
2018-07-09T06:11:27.733Z,1.95
2018-07-09T06:16:30.398Z,2.05
2018-07-09T06:21:32.925Z,2.20
2018-07-09T06:26:35.554Z,2.20
2018-07-09T06:31:38.087Z,2.33
2018-07-09T06:36:40.940Z,2.60
2018-07-09T06:41:43.342Z,2.30
2018-07-09T06:46:46.306Z,2.62
2018-07-09T06:51:48.818Z,2.12
2018-07-09T06:56:51.361Z,2.20
2018-07-09T07:01:53.803Z,2.12
2018-07-09T07:06:56.304Z,2.30
2018-07-09T07:11:58.855Z,2.05
2018-07-09T07:17:01.288Z,2.00
2018-07-09T07:22:04.017Z,1.57
2018-07-09T07:27:07.173Z,1.52
2018-07-09T07:32:10.249Z,1.85
2018-07-09T07:37:17.593Z,1.35
2018-07-09T07:42:20.170Z,1.22
2018-07-09T07:47:23.614Z,1.55
2018-07-09T07:52:26.367Z,1.60
2018-07-09T07:57:29.531Z,1.60
2018-07-09T08:02:32.081Z,2.08
2018-07-09T08:07:35.246Z,2.17
2018-07-09T08:17:40.215Z,1.80
2018-07-09T08:22:42.910Z,1.62
2018-07-09T08:27:45.389Z,1.60
2018-07-09T08:32:48.001Z,1.40
2018-07-09T08:37:50.507Z,1.10
2018-07-09T08:42:53.177Z,1.30
2018-07-09T08:47:55.720Z,1.50
2018-07-09T08:52:58.658Z,1.60
2018-07-09T08:58:01.127Z,1.82
2018-07-09T09:03:03.620Z,1.90
2018-07-09T09:08:06.155Z,1.67
2018-07-09T09:13:09.265Z,1.90
2018-07-09T09:18:11.776Z,1.60
2018-07-09T09:23:14.240Z,1.40
2018-07-09T09:28:16.765Z,1.57
2018-07-09T09:33:19.178Z,1.80
2018-07-09T09:38:21.772Z,2.10
2018-07-09T09:43:24.984Z,1.60
2018-07-09T09:48:27.570Z,4.25
2018-07-09T09:53:30.397Z,1.50
2018-07-09T09:58:33.195Z,1.37
2018-07-09T10:03:36.068Z,1.30
2018-07-09T10:08:38.515Z,1.62
2018-07-09T10:13:41.273Z,1.27
2018-07-09T10:18:43.789Z,1.40
2018-07-09T10:23:46.248Z,1.45
2018-07-09T10:28:48.664Z,1.70
2018-07-09T10:33:51.529Z,1.70
2018-07-09T10:38:54.179Z,1.87
2018-07-09T10:43:57.052Z,1.95
2018-07-09T10:48:59.676Z,1.57
2018-07-09T10:54:02.404Z,1.30
2018-07-09T10:59:05.338Z,1.20
2018-07-09T11:04:08.269Z,1.10
2018-07-09T11:09:11.396Z,1.00
2018-07-09T11:14:14.229Z,0.90
2018-07-09T11:19:16.897Z,1.10
2018-07-09T11:24:19.916Z,0.85
2018-07-09T11:29:22.828Z,0.90
2018-07-09T11:34:25.957Z,0.80
2018-07-09T11:39:28.777Z,0.68
2018-07-09T11:44:31.900Z,0.50
2018-07-09T11:49:34.942Z,0.80
2018-07-09T11:54:37.726Z,0.80
2018-07-09T11:59:40.896Z,0.72
2018-07-09T12:04:43.718Z,0.70
2018-07-09T12:09:46.554Z,0.90
2018-07-09T12:14:49.605Z,1.05
2018-07-09T12:19:52.585Z,1.00
2018-07-09T12:24:56.183Z,0.90
2018-07-09T12:30:03.554Z,1.00
2018-07-09T12:39:27.641Z,0.60
2018-07-09T12:44:30.193Z,0.70
2018-07-09T12:49:32.639Z,0.60
2018-07-09T12:54:35.723Z,0.62
2018-07-09T12:59:38.113Z,0.70
2018-07-09T13:04:40.688Z,0.75
2018-07-09T13:09:43.219Z,0.80
2018-07-09T13:14:45.881Z,0.65
2018-07-09T13:19:48.662Z,0.70
2018-07-09T13:24:51.360Z,0.95
2018-07-09T13:29:53.886Z,1.37
2018-07-09T13:34:56.915Z,1.20
2018-07-09T13:39:59.389Z,1.40
2018-07-09T13:45:05.419Z,1.12
2018-07-09T13:50:08.006Z,1.75
2018-07-09T13:55:10.881Z,1.10
2018-07-09T14:00:13.456Z,1.00
2018-07-09T14:05:15.861Z,0.88
2018-07-09T14:10:18.308Z,0.90
2018-07-09T14:15:20.720Z,1.10
2018-07-09T14:20:40.852Z,1.00
2018-07-09T14:25:44.318Z,1.00
2018-07-09T14:30:46.753Z,1.05
2018-07-09T14:35:49.170Z,0.95
2018-07-09T14:40:51.665Z,1.00
2018-07-09T14:45:54.091Z,0.90
2018-07-09T14:50:56.603Z,1.10
2018-07-09T14:55:59.060Z,1.40
2018-07-09T15:01:01.431Z,1.22
2018-07-09T15:06:04.017Z,1.40
2018-07-09T15:11:06.429Z,1.15
2018-07-09T15:16:08.869Z,1.20
2018-07-09T15:21:11.665Z,1.40
2018-07-09T15:26:14.017Z,1.20
2018-07-09T15:31:16.425Z,1.27
2018-07-09T15:36:19.069Z,1.22
2018-07-09T15:41:22.104Z,1.22
2018-07-09T15:46:24.729Z,1.75
2018-07-09T15:51:27.533Z,2.60
2018-07-09T15:56:30.109Z,1.80
2018-07-09T16:01:32.739Z,1.77
2018-07-09T16:06:35.185Z,1.98
2018-07-09T16:11:37.732Z,1.75
2018-07-09T16:16:40.270Z,1.92
2018-07-09T16:21:42.846Z,1.77
2018-07-09T16:26:45.332Z,1.52
2018-07-09T16:31:47.848Z,1.60
2018-07-09T16:36:50.335Z,1.87
2018-07-09T16:41:52.988Z,1.80
2018-07-09T16:46:55.497Z,1.57
2018-07-09T16:51:58.923Z,1.80
2018-07-09T16:57:01.694Z,1.80
2018-07-09T17:02:04.524Z,1.92
2018-07-09T17:07:07.492Z,1.90
2018-07-09T17:12:10.089Z,1.55
2018-07-09T17:17:12.734Z,1.72
2018-07-09T17:22:15.220Z,1.60
2018-07-09T17:27:18.262Z,1.62
2018-07-09T17:32:20.636Z,1.65
2018-07-09T17:37:23.112Z,1.67
2018-07-09T17:42:25.591Z,1.80
2018-07-09T17:47:28.074Z,1.60
2018-07-09T17:52:31.652Z,1.80
2018-07-09T17:57:34.098Z,1.57
2018-07-09T18:02:36.498Z,1.67
2018-07-09T18:07:40.603Z,1.42
2018-07-09T18:12:43.008Z,1.60
2018-07-09T18:17:45.494Z,1.55
2018-07-09T18:22:48.052Z,1.67
2018-07-09T18:27:50.604Z,1.37
2018-07-09T18:32:53.070Z,1.45
2018-07-09T18:37:55.485Z,1.40
2018-07-09T18:42:57.920Z,1.57
2018-07-09T18:48:00.485Z,1.45
2018-07-09T18:53:02.985Z,2.70
2018-07-09T18:58:05.400Z,1.90
2018-07-09T19:03:07.806Z,1.87
2018-07-09T19:08:10.279Z,1.65
2018-07-09T19:13:12.809Z,1.70
2018-07-09T19:18:28.041Z,1.75
2018-07-09T19:23:29.934Z,1.67
2018-07-09T19:28:31.779Z,1.80
2018-07-09T19:33:33.854Z,1.65
2018-07-09T19:38:36.633Z,1.85
2018-07-09T19:43:38.808Z,1.72
2018-07-09T19:48:40.652Z,1.77
2018-07-09T19:53:42.544Z,1.90
2018-07-09T19:58:44.436Z,1.80
2018-07-09T20:03:46.266Z,1.52
2018-07-09T20:08:55.866Z,1.70
2018-07-09T20:14:03.953Z,1.10
2018-07-09T20:19:06.008Z,1.32
2018-07-09T20:24:07.854Z,1.55
2018-07-09T20:29:09.660Z,1.20
2018-07-09T20:34:11.584Z,1.20
2018-07-09T20:39:13.423Z,1.00
2018-07-09T20:44:15.340Z,1.10
2018-07-09T20:49:17.191Z,1.17
2018-07-09T20:54:19.089Z,1.02
2018-07-09T20:59:20.899Z,0.90
2018-07-09T21:04:29.904Z,0.93
2018-07-09T21:09:32.705Z,1.10
2018-07-09T21:14:34.534Z,1.07
2018-07-09T21:19:36.365Z,0.90
2018-07-09T21:24:38.242Z,0.95
2018-07-09T21:29:40.126Z,0.82
2018-07-09T21:34:41.961Z,0.90
2018-07-09T21:39:44.394Z,1.10
2018-07-09T21:44:46.252Z,1.02
2018-07-09T21:49:48.152Z,0.90
2018-07-09T21:54:49.941Z,1.32
2018-07-09T21:59:52.594Z,1.00
2018-07-09T22:04:54.477Z,0.98
2018-07-09T22:09:56.432Z,0.90
2018-07-09T22:14:58.457Z,0.98
2018-07-09T22:20:05.271Z,1.10
2018-07-09T22:25:07.081Z,1.00
2018-07-09T22:30:08.980Z,1.30
2018-07-09T22:35:11.625Z,0.93
2018-07-09T22:40:14.233Z,1.10
2018-07-09T22:45:16.751Z,1.00
2018-07-09T22:50:19.406Z,1.17
2018-07-09T22:55:27.380Z,0.93
2018-07-09T23:00:29.824Z,0.90
2018-07-09T23:05:32.278Z,0.90
2018-07-09T23:12:43.173Z,1.15
2018-07-09T23:17:51.112Z,1.30
2018-07-09T23:22:52.988Z,0.80
2018-07-09T23:27:54.851Z,1.10
2018-07-09T23:32:56.753Z,1.07
2018-07-09T23:37:59.310Z,1.17
2018-07-09T23:43:01.180Z,1.30
2018-07-09T23:48:03.043Z,1.10
2018-07-09T23:53:04.908Z,1.05
